createdAt,value
2023-03-03T00:02:25.337Z,98210.63
2023-03-03T00:04:55.807Z,98216.47
2023-03-03T00:07:26.107Z,98217.63
2023-03-03T00:09:58.332Z,98207.44
2023-03-03T00:12:31.440Z,98206.22
2023-03-03T00:15:04.429Z,98207.72
2023-03-03T00:17:35.401Z,98200.25
2023-03-03T00:20:30.775Z,98205.63
2023-03-03T00:23:18.730Z,98205.16
2023-03-03T00:25:53.590Z,98214.03
2023-03-03T00:28:29.242Z,98208.53
2023-03-03T00:31:05.149Z,98222.88
2023-03-03T00:33:37.738Z,98217.00
2023-03-03T00:36:35.793Z,98213.50
2023-03-03T00:39:31.472Z,98217.41
2023-03-03T00:42:04.454Z,98216.56
2023-03-03T00:44:46.006Z,98225.13
2023-03-03T00:47:32.016Z,98219.59
2023-03-03T00:50:31.607Z,98218.03
2023-03-03T00:53:09.566Z,98218.38
2023-03-03T00:55:40.611Z,98211.31
2023-03-03T00:58:11.035Z,98214.06
2023-03-03T01:00:48.160Z,98221.47
2023-03-03T01:03:27.340Z,98214.78
2023-03-03T01:05:58.562Z,98216.66
2023-03-03T01:08:29.062Z,98213.50
2023-03-03T01:11:03.251Z,98216.25
2023-03-03T01:13:38.005Z,98209.19
2023-03-03T01:16:10.185Z,98204.91
2023-03-03T01:18:43.348Z,98211.47
2023-03-03T01:21:14.533Z,98199.34
2023-03-03T01:23:44.899Z,98206.34
2023-03-03T01:26:15.272Z,98208.28
2023-03-03T01:28:45.720Z,98202.81
2023-03-03T01:31:16.109Z,98204.38
2023-03-03T01:33:49.082Z,98212.97
2023-03-03T01:36:19.390Z,98208.25
2023-03-03T01:38:49.722Z,98204.38
2023-03-03T01:41:20.386Z,98209.06
2023-03-03T01:43:54.291Z,98191.88
2023-03-03T01:46:53.209Z,98196.94
2023-03-03T01:49:30.991Z,98196.53
2023-03-03T01:52:04.921Z,98193.44
2023-03-03T01:54:46.688Z,98198.97
2023-03-03T01:57:26.036Z,98203.66
2023-03-03T02:00:01.089Z,98211.88
2023-03-03T02:02:33.092Z,98215.31
2023-03-03T02:05:06.401Z,98221.25
2023-03-03T02:07:37.191Z,98222.91
2023-03-03T02:10:14.087Z,98218.72
2023-03-03T02:12:48.816Z,98211.22
2023-03-03T02:15:29.858Z,98214.75
2023-03-03T02:18:03.902Z,98213.19
2023-03-03T02:20:49.989Z,98210.50
2023-03-03T02:23:29.291Z,98207.03
2023-03-03T02:26:13.379Z,98199.41
2023-03-03T02:28:45.077Z,98193.34
2023-03-03T02:31:21.602Z,98193.72
2023-03-03T02:33:54.934Z,98188.63
2023-03-03T02:36:27.672Z,98182.38
2023-03-03T02:39:07.492Z,98186.44
2023-03-03T02:41:46.656Z,98178.69
2023-03-03T02:44:20.987Z,98182.66
2023-03-03T02:46:53.875Z,98184.66
2023-03-03T02:49:27.937Z,98185.91
2023-03-03T02:51:59.165Z,98196.06
2023-03-03T02:54:32.749Z,98195.28
2023-03-03T02:57:09.181Z,98192.22
2023-03-03T02:59:39.554Z,98198.00
2023-03-03T03:02:16.257Z,98200.63
2023-03-03T03:04:46.693Z,98202.16
2023-03-03T03:07:21.653Z,98201.00
2023-03-03T03:09:52.180Z,98195.16
2023-03-03T03:12:25.169Z,98188.84
2023-03-03T03:14:58.792Z,98193.88
2023-03-03T03:17:29.726Z,98199.72
2023-03-03T03:20:02.504Z,98201.66
2023-03-03T03:22:34.032Z,98196.91
2023-03-03T03:25:04.418Z,98196.84
2023-03-03T03:27:38.080Z,98202.44
2023-03-03T03:30:10.575Z,98217.94
2023-03-03T03:32:40.912Z,98221.94
2023-03-03T03:35:13.627Z,98225.78
2023-03-03T03:37:43.969Z,98210.91
2023-03-03T03:40:16.096Z,98217.09
2023-03-03T03:42:49.060Z,98209.59
2023-03-03T03:45:19.749Z,98202.56
2023-03-03T03:47:50.976Z,98204.56
2023-03-03T03:50:22.521Z,98207.97
2023-03-03T03:52:53.097Z,98197.44
2023-03-03T03:55:23.799Z,98202.91
2023-03-03T03:57:58.083Z,98208.44
2023-03-03T04:00:29.997Z,98200.75
2023-03-03T04:03:03.188Z,98212.53
2023-03-03T04:05:33.706Z,98206.72
2023-03-03T04:08:04.794Z,98206.72
2023-03-03T04:10:35.487Z,98210.31
2023-03-03T04:13:10.195Z,98201.78
2023-03-03T04:15:40.635Z,98208.44
2023-03-03T04:18:13.502Z,98211.16
2023-03-03T04:20:45.156Z,98209.22
2023-03-03T04:23:15.731Z,98211.97
2023-03-03T04:25:46.487Z,98219.78
2023-03-03T04:28:22.109Z,98229.56
2023-03-03T04:30:53.797Z,98229.91
2023-03-03T04:33:25.514Z,98231.53
2023-03-03T04:35:55.993Z,98224.06
2023-03-03T04:38:26.956Z,98233.84
2023-03-03T04:40:59.667Z,98237.72
2023-03-03T04:43:35.307Z,98238.09
2023-03-03T04:46:07.024Z,98240.78
2023-03-03T04:48:41.870Z,98234.53
2023-03-03T04:51:13.588Z,98232.19
2023-03-03T04:53:45.657Z,98235.75
2023-03-03T04:56:17.117Z,98247.44
2023-03-03T04:58:50.084Z,98247.41
2023-03-03T05:01:21.011Z,98246.25
2023-03-03T05:03:51.399Z,98243.56
2023-03-03T05:06:22.025Z,98246.34
2023-03-03T05:08:52.384Z,98244.44
2023-03-03T05:11:22.759Z,98251.84
2023-03-03T05:13:56.337Z,98250.63
2023-03-03T05:16:26.722Z,98245.56
2023-03-03T05:18:56.979Z,98257.22
2023-03-03T05:21:27.557Z,98263.47
2023-03-03T05:23:58.007Z,98271.66
2023-03-03T05:26:28.419Z,98267.31
2023-03-03T05:29:01.382Z,98277.06
2023-03-03T05:31:31.829Z,98271.16
2023-03-03T05:34:02.449Z,98278.19
2023-03-03T05:36:33.985Z,98278.22
2023-03-03T05:39:04.383Z,98292.28
2023-03-03T05:41:37.098Z,98288.41
2023-03-03T05:44:10.339Z,98296.22
2023-03-03T05:46:40.760Z,98291.97
2023-03-03T05:49:11.376Z,98286.88
2023-03-03T05:51:41.844Z,98277.56
2023-03-03T05:54:12.483Z,98286.53
2023-03-03T05:56:42.941Z,98277.59
2023-03-03T05:59:16.094Z,98283.50
2023-03-03T06:01:48.425Z,98280.75
2023-03-03T06:04:18.836Z,98281.91
2023-03-03T06:06:49.736Z,98276.81
2023-03-03T06:09:21.324Z,98279.94
2023-03-03T06:11:52.997Z,98269.75
2023-03-03T06:14:27.272Z,98281.41
2023-03-03T06:17:00.769Z,98288.81
2023-03-03T06:19:31.022Z,98290.00
2023-03-03T06:22:01.329Z,98278.63
2023-03-03T06:24:32.387Z,98289.59
2023-03-03T06:27:03.979Z,98284.97
2023-03-03T06:29:37.014Z,98301.34
2023-03-03T06:32:07.874Z,98298.63
2023-03-03T06:34:38.626Z,98298.19
2023-03-03T06:37:09.076Z,98294.63
2023-03-03T06:39:41.502Z,98292.72
2023-03-03T06:42:12.369Z,98280.69
2023-03-03T06:44:45.477Z,98286.53
2023-03-03T06:47:19.230Z,98289.16
2023-03-03T06:49:49.526Z,98291.56
2023-03-03T06:52:25.285Z,98289.59
2023-03-03T06:54:59.211Z,98276.00
2023-03-03T06:57:32.538Z,98282.59
2023-03-03T07:00:20.480Z,98287.13
2023-03-03T07:02:51.351Z,98285.91
2023-03-03T07:05:22.142Z,98294.41
2023-03-03T07:07:52.774Z,98294.38
2023-03-03T07:10:28.057Z,98295.09
2023-03-03T07:13:12.308Z,98298.66
2023-03-03T07:15:45.768Z,98307.25
2023-03-03T07:18:37.347Z,98305.31
2023-03-03T07:21:22.736Z,98309.91
2023-03-03T07:23:55.485Z,98305.56
2023-03-03T07:26:30.979Z,98313.69
2023-03-03T07:29:04.424Z,98312.91
2023-03-03T07:31:40.479Z,98317.94
2023-03-03T07:34:24.401Z,98317.16
2023-03-03T07:36:59.746Z,98329.75
2023-03-03T07:39:40.426Z,98337.50
2023-03-03T07:42:27.844Z,98356.19
2023-03-03T07:45:31.174Z,98349.50
2023-03-03T07:48:18.139Z,98346.38
2023-03-03T07:50:50.072Z,98350.28
2023-03-03T07:53:31.578Z,98348.38
2023-03-03T07:56:05.039Z,98358.53
2023-03-03T07:58:42.393Z,98347.22
2023-03-03T08:01:43.764Z,98342.88
2023-03-03T08:04:29.779Z,98349.13
2023-03-03T08:07:02.456Z,98349.06
2023-03-03T08:09:55.623Z,98358.50
2023-03-03T08:12:47.431Z,98356.19
2023-03-03T08:15:27.110Z,98359.72
2023-03-03T08:17:59.201Z,98361.25
2023-03-03T08:20:58.313Z,98359.34
2023-03-03T08:23:28.710Z,98358.91
2023-03-03T08:25:59.091Z,98358.88
2023-03-03T08:28:29.713Z,98354.94
2023-03-03T08:31:15.379Z,98357.72
2023-03-03T08:33:47.536Z,98351.47
2023-03-03T08:36:20.676Z,98354.53
2023-03-03T08:38:51.070Z,98353.31
2023-03-03T08:41:21.340Z,98361.53
2023-03-03T08:43:51.834Z,98360.78
2023-03-03T08:46:27.254Z,98362.78
2023-03-03T08:48:57.757Z,98365.47
2023-03-03T08:51:34.380Z,98368.97
2023-03-03T08:54:04.883Z,98359.63
2023-03-03T08:56:35.240Z,98370.22
2023-03-03T08:59:05.700Z,98365.53
2023-03-03T09:01:38.051Z,98372.94
2023-03-03T09:04:08.515Z,98374.94
2023-03-03T09:06:41.600Z,98366.34
2023-03-03T09:09:11.908Z,98369.81
2023-03-03T09:11:43.643Z,98365.53
2023-03-03T09:14:16.862Z,98360.75
2023-03-03T09:16:54.523Z,98372.41
2023-03-03T09:19:29.631Z,98372.41
2023-03-03T09:22:14.866Z,98377.44
2023-03-03T09:24:45.917Z,98376.25
2023-03-03T09:27:22.625Z,98384.00
2023-03-03T09:29:52.982Z,98385.97
2023-03-03T09:32:39.281Z,98385.97
2023-03-03T09:35:39.212Z,98383.72
2023-03-03T09:38:30.481Z,98384.84
2023-03-03T09:41:30.139Z,98391.44
2023-03-03T09:44:42.956Z,98387.94
2023-03-03T09:47:42.076Z,98391.09
2023-03-03T09:50:29.519Z,98389.53
2023-03-03T09:53:19.962Z,98398.81
2023-03-03T09:55:59.455Z,98397.28
2023-03-03T09:59:00.314Z,98385.97
2023-03-03T10:01:55.576Z,98395.00
2023-03-03T10:05:19.348Z,98398.88
2023-03-03T10:08:11.536Z,98397.69
2023-03-03T10:10:56.745Z,98404.28
2023-03-03T10:13:49.810Z,98398.81
2023-03-03T10:16:45.354Z,98405.81
2023-03-03T10:19:36.997Z,98408.81
2023-03-03T10:22:27.493Z,98411.19
2023-03-03T10:25:16.632Z,98410.41
2023-03-03T10:28:19.438Z,98397.03
2023-03-03T10:31:07.612Z,98402.06
2023-03-03T10:33:50.939Z,98414.22
2023-03-03T10:36:48.946Z,98400.06
2023-03-03T10:39:45.765Z,98405.53
2023-03-03T10:42:48.385Z,98413.38
2023-03-03T10:45:56.957Z,98407.97
2023-03-03T10:48:49.451Z,98402.84
2023-03-03T10:51:31.085Z,98409.09
2023-03-03T10:54:18.251Z,98404.78
2023-03-03T10:56:59.958Z,98422.31
2023-03-03T11:00:04.529Z,98414.06
2023-03-03T11:02:53.625Z,98412.06
2023-03-03T11:05:37.451Z,98405.78
2023-03-03T11:08:14.437Z,98411.53
2023-03-03T11:10:57.673Z,98406.47
2023-03-03T11:13:39.664Z,98411.53
2023-03-03T11:16:25.662Z,98409.97
2023-03-03T11:19:24.634Z,98414.53
2023-03-03T11:22:05.911Z,98409.84
2023-03-03T11:24:50.593Z,98401.63
2023-03-03T11:28:10.074Z,98404.38
2023-03-03T11:31:01.618Z,98414.06
2023-03-03T11:33:45.155Z,98408.59
2023-03-03T11:36:24.188Z,98404.44
2023-03-03T11:39:02.478Z,98411.47
2023-03-03T11:41:41.318Z,98398.66
2023-03-03T11:44:25.903Z,98397.19
2023-03-03T11:47:02.361Z,98402.66
2023-03-03T11:49:40.714Z,98393.66
2023-03-03T11:52:28.949Z,98392.50
2023-03-03T11:55:08.014Z,98390.59
2023-03-03T11:57:46.426Z,98396.88
2023-03-03T12:00:32.365Z,98400.72
2023-03-03T12:03:19.915Z,98385.88
2023-03-03T12:06:01.522Z,98383.41
2023-03-03T12:08:50.117Z,98381.78
2023-03-03T12:11:28.963Z,98380.94
2023-03-03T12:14:06.674Z,98370.69
2023-03-03T12:16:48.447Z,98376.16
2023-03-03T12:19:46.419Z,98369.19
2023-03-03T12:22:47.186Z,98385.22
2023-03-03T12:25:32.893Z,98384.03
2023-03-03T12:28:12.219Z,98381.03
2023-03-03T12:31:02.919Z,98384.97
2023-03-03T12:33:54.457Z,98377.88
2023-03-03T12:36:48.362Z,98389.19
2023-03-03T12:39:35.445Z,98383.41
2023-03-03T12:42:23.580Z,98382.69
2023-03-03T12:45:05.780Z,98371.72
2023-03-03T12:47:42.473Z,98373.28
2023-03-03T12:50:34.147Z,98372.47
2023-03-03T12:53:17.013Z,98368.28
2023-03-03T12:55:57.060Z,98369.31
2023-03-03T12:58:45.152Z,98370.84
2023-03-03T13:01:33.207Z,98368.91
2023-03-03T13:04:13.072Z,98370.41
2023-03-03T13:06:50.692Z,98372.75
2023-03-03T13:09:38.558Z,98364.22
2023-03-03T13:12:33.918Z,98357.19
2023-03-03T13:15:32.158Z,98355.19
2023-03-03T13:18:22.876Z,98352.97
2023-03-03T13:20:58.883Z,98353.63
2023-03-03T13:23:44.959Z,98359.31
2023-03-03T13:26:24.082Z,98356.50
2023-03-03T13:29:14.294Z,98357.91
2023-03-03T13:31:51.576Z,98357.66
2023-03-03T13:34:40.472Z,98356.03
2023-03-03T13:37:23.861Z,98346.34
2023-03-03T13:40:03.649Z,98353.63
2023-03-03T13:42:42.844Z,98352.38
2023-03-03T13:45:27.615Z,98358.56
2023-03-03T13:48:12.103Z,98360.19
2023-03-03T13:50:50.458Z,98372.38
2023-03-03T13:53:45.299Z,98369.69
2023-03-03T13:56:35.912Z,98371.59
2023-03-03T13:59:18.422Z,98360.69
2023-03-03T14:02:01.157Z,98358.75
2023-03-03T14:04:50.006Z,98360.72
2023-03-03T14:07:29.435Z,98353.78
2023-03-03T14:10:06.841Z,98346.75
2023-03-03T14:12:47.514Z,98352.31
2023-03-03T14:15:26.931Z,98344.03
2023-03-03T14:18:19.856Z,98347.16
2023-03-03T14:20:55.998Z,98348.06
2023-03-03T14:23:34.123Z,98345.66
2023-03-03T14:26:12.957Z,98347.13
2023-03-03T14:28:46.679Z,98332.63
2023-03-03T14:31:26.558Z,98329.13
2023-03-03T14:34:04.622Z,98332.41
2023-03-03T14:36:43.880Z,98332.75
2023-03-03T14:39:35.930Z,98335.50
2023-03-03T14:42:15.779Z,98337.81
2023-03-03T14:44:59.449Z,98342.91
2023-03-03T14:47:30.678Z,98344.16
2023-03-03T14:50:03.720Z,98332.72
2023-03-03T14:52:37.969Z,98323.59
2023-03-03T14:55:37.096Z,98311.94
2023-03-03T14:58:10.413Z,98315.22
2023-03-03T15:00:40.823Z,98310.44
2023-03-03T15:03:25.472Z,98312.28
2023-03-03T15:05:58.865Z,98318.53
2023-03-03T15:08:37.248Z,98313.03
2023-03-03T15:11:24.958Z,98308.25
2023-03-03T15:13:55.422Z,98294.94
2023-03-03T15:16:27.705Z,98301.28
2023-03-03T15:19:43.649Z,98299.72
2023-03-03T15:22:25.253Z,98304.53
2023-03-03T15:25:06.777Z,98294.09
2023-03-03T15:27:44.183Z,98292.78
2023-03-03T15:30:27.227Z,98292.03
2023-03-03T15:33:07.415Z,98298.75
2023-03-03T15:35:53.550Z,98303.84
2023-03-03T15:38:38.702Z,98307.31
2023-03-03T15:41:25.910Z,98293.59
2023-03-03T15:44:17.215Z,98300.88
2023-03-03T15:47:21.331Z,98307.00
2023-03-03T15:50:10.783Z,98293.31
2023-03-03T15:52:54.006Z,98283.91
2023-03-03T15:55:38.593Z,98282.38
2023-03-03T15:58:57.309Z,98292.53
2023-03-03T16:01:32.923Z,98288.25
2023-03-03T16:04:08.172Z,98292.38
2023-03-03T16:06:50.555Z,98289.03
2023-03-03T16:09:35.173Z,98298.31
2023-03-03T16:12:17.242Z,98305.38
2023-03-03T16:15:19.952Z,98304.16
2023-03-03T16:18:01.809Z,98302.22
2023-03-03T16:20:43.330Z,98298.66
2023-03-03T16:23:33.681Z,98300.22
2023-03-03T16:26:20.293Z,98300.19
2023-03-03T16:29:05.755Z,98305.78
2023-03-03T16:31:47.957Z,98316.06
2023-03-03T16:34:27.533Z,98310.66
2023-03-03T16:37:07.893Z,98317.69
2023-03-03T16:39:54.199Z,98324.66
2023-03-03T16:42:30.954Z,98324.72
2023-03-03T16:45:26.007Z,98330.56
2023-03-03T16:48:16.701Z,98322.81
2023-03-03T16:50:57.268Z,98324.72
2023-03-03T16:53:52.005Z,98328.97
2023-03-03T16:56:26.275Z,98329.84
2023-03-03T16:59:45.381Z,98325.56
2023-03-03T17:02:44.745Z,98326.69
2023-03-03T17:05:32.799Z,98322.88
2023-03-03T17:08:43.991Z,98325.97
2023-03-03T17:11:24.469Z,98320.16
2023-03-03T17:14:24.038Z,98318.19
2023-03-03T17:17:01.588Z,98320.59
2023-03-03T17:19:47.478Z,98323.31
2023-03-03T17:22:28.440Z,98322.88
2023-03-03T17:25:11.326Z,98324.03
2023-03-03T17:28:03.361Z,98331.00
2023-03-03T17:30:44.784Z,98328.75
2023-03-03T17:33:28.676Z,98336.53
2023-03-03T17:36:18.386Z,98343.09
2023-03-03T17:39:10.136Z,98340.00
2023-03-03T17:41:48.006Z,98347.41
2023-03-03T17:44:27.436Z,98346.59
2023-03-03T17:47:03.174Z,98348.56
2023-03-03T17:50:11.000Z,98345.06
2023-03-03T17:53:20.369Z,98350.88
2023-03-03T17:56:16.678Z,98340.34
2023-03-03T17:59:38.486Z,98334.13
2023-03-03T18:02:32.381Z,98333.03
2023-03-03T18:05:46.724Z,98340.88
2023-03-03T18:08:39.319Z,98344.81
2023-03-03T18:11:42.777Z,98342.06
2023-03-03T18:15:17.263Z,98340.09
2023-03-03T18:18:04.372Z,98341.59
2023-03-03T18:20:50.090Z,98347.47
2023-03-03T18:23:35.624Z,98351.31
2023-03-03T18:26:27.996Z,98352.53
2023-03-03T18:29:20.563Z,98341.25
2023-03-03T18:32:22.479Z,98348.25
2023-03-03T18:35:32.535Z,98341.63
2023-03-03T18:38:35.920Z,98341.22
2023-03-03T18:41:08.278Z,98346.28
2023-03-03T18:44:01.757Z,98345.13
2023-03-03T18:46:52.376Z,98347.91
2023-03-03T18:50:01.011Z,98351.03
2023-03-03T18:52:33.093Z,98347.53
2023-03-03T18:55:28.353Z,98349.88
2023-03-03T18:58:35.777Z,98346.75
2023-03-03T19:01:44.581Z,98352.13
2023-03-03T19:04:27.108Z,98352.91
2023-03-03T19:07:26.569Z,98357.59
2023-03-03T19:10:02.932Z,98347.47
2023-03-03T19:12:57.911Z,98352.09
2023-03-03T19:16:01.496Z,98348.59
2023-03-03T19:18:36.448Z,98352.09
2023-03-03T19:21:10.494Z,98350.88
2023-03-03T19:23:54.500Z,98360.66
2023-03-03T19:26:48.370Z,98364.59
2023-03-03T19:29:41.678Z,98346.63
2023-03-03T19:32:32.576Z,98353.66
2023-03-03T19:35:23.305Z,98353.69
2023-03-03T19:38:08.950Z,98356.03
2023-03-03T19:40:48.919Z,98357.59
2023-03-03T19:43:36.245Z,98356.03
2023-03-03T19:46:30.130Z,98352.13
2023-03-03T19:49:11.855Z,98356.81
2023-03-03T19:51:55.611Z,98351.28
2023-03-03T19:54:51.304Z,98359.13
2023-03-03T19:57:38.511Z,98354.03
2023-03-03T20:00:20.473Z,98353.97
2023-03-03T20:03:18.496Z,98356.72
2023-03-03T20:05:54.626Z,98355.56
2023-03-03T20:08:37.045Z,98354.44
2023-03-03T20:11:15.490Z,98352.09
2023-03-03T20:13:57.030Z,98358.75
2023-03-03T20:16:41.544Z,98353.72
2023-03-03T20:19:32.058Z,98362.22
2023-03-03T20:22:12.415Z,98346.63
2023-03-03T20:25:10.555Z,98348.94
2023-03-03T20:27:53.793Z,98347.41
2023-03-03T20:30:38.876Z,98341.19
2023-03-03T20:33:34.146Z,98343.50
2023-03-03T20:36:16.836Z,98345.06
2023-03-03T20:39:04.424Z,98345.47
2023-03-03T20:41:56.526Z,98342.69
2023-03-03T20:44:43.519Z,98334.88
2023-03-03T20:47:24.002Z,98338.03
2023-03-03T20:50:15.670Z,98341.56
2023-03-03T20:53:03.779Z,98344.31
2023-03-03T20:55:49.896Z,98342.34
2023-03-03T20:58:30.566Z,98339.97
2023-03-03T21:01:09.186Z,98338.81
2023-03-03T21:03:43.276Z,98341.19
2023-03-03T21:06:18.039Z,98333.00
2023-03-03T21:08:54.381Z,98347.78
2023-03-03T21:11:27.732Z,98343.91
2023-03-03T21:14:02.583Z,98340.38
2023-03-03T21:16:36.778Z,98340.38
2023-03-03T21:19:10.147Z,98340.41
2023-03-03T21:21:43.148Z,98336.53
2023-03-03T21:24:19.970Z,98338.84
2023-03-03T21:26:55.237Z,98331.34
2023-03-03T21:29:31.484Z,98334.09
2023-03-03T21:32:04.143Z,98323.94
2023-03-03T21:34:36.429Z,98327.06
2023-03-03T21:37:08.652Z,98324.03
2023-03-03T21:39:41.614Z,98332.63
2023-03-03T21:42:14.668Z,98321.75
2023-03-03T21:44:49.831Z,98317.13
2023-03-03T21:47:22.782Z,98321.78
2023-03-03T21:49:55.222Z,98316.66
2023-03-03T21:52:26.013Z,98313.19
2023-03-03T21:54:56.400Z,98313.22
2023-03-03T21:57:27.011Z,98315.16
2023-03-03T22:00:00.198Z,98312.81
2023-03-03T22:02:30.864Z,98313.19
2023-03-03T22:05:03.281Z,98314.75
2023-03-03T22:07:33.604Z,98311.66
2023-03-03T22:10:04.023Z,98310.13
2023-03-03T22:12:34.275Z,98309.31
2023-03-03T22:15:08.558Z,98316.69
2023-03-03T22:17:40.791Z,98311.56
2023-03-03T22:20:14.790Z,98304.94
2023-03-03T22:22:45.332Z,98315.06
2023-03-03T22:25:15.709Z,98308.50
2023-03-03T22:27:46.002Z,98305.72
2023-03-03T22:30:20.034Z,98313.16
2023-03-03T22:32:52.413Z,98303.06
2023-03-03T22:35:22.694Z,98306.19
2023-03-03T22:37:53.158Z,98305.78
2023-03-03T22:40:23.755Z,98305.75
2023-03-03T22:42:54.178Z,98307.69
2023-03-03T22:45:27.234Z,98299.50
2023-03-03T22:47:57.577Z,98297.97
2023-03-03T22:50:28.365Z,98291.38
2023-03-03T22:52:58.668Z,98289.41
2023-03-03T22:55:29.407Z,98285.09
2023-03-03T22:57:59.780Z,98283.16
2023-03-03T23:00:33.000Z,98276.16
2023-03-03T23:03:03.588Z,98279.34
2023-03-03T23:05:34.119Z,98271.19
2023-03-03T23:08:04.806Z,98271.16
2023-03-03T23:10:35.830Z,98281.69
2023-03-03T23:13:06.648Z,98272.78
2023-03-03T23:15:40.068Z,98268.09
2023-03-03T23:18:10.657Z,98271.53
2023-03-03T23:20:45.862Z,98270.34
2023-03-03T23:23:16.379Z,98269.91
2023-03-03T23:25:46.690Z,98265.53
2023-03-03T23:28:17.213Z,98262.47
2023-03-03T23:30:52.082Z,98256.63
2023-03-03T23:33:23.646Z,98256.72
2023-03-03T23:35:53.773Z,98254.81
2023-03-03T23:38:24.109Z,98258.66
2023-03-03T23:40:54.499Z,98252.06
2023-03-03T23:43:24.825Z,98250.50
2023-03-03T23:45:57.770Z,98259.88
2023-03-03T23:48:28.151Z,98256.34
2023-03-03T23:50:58.555Z,98253.28
2023-03-03T23:53:29.089Z,98254.03
2023-03-03T23:55:59.449Z,98248.19
2023-03-03T23:58:29.691Z,98245.09
